Thassos III — SVA2112 — position and weather

sailwx.info

Track history (hours):
 
Tides and Currents Weather Stations Pressure Air Temp Water Temp Dewpoint Dewpoint Depression Visibility Wind Speed Wind Dir Waves Ship Positions

Thassos III

Last reported at 2017-Sep-19 19:21 UTC. Time now 2017-Sep-20 01:56 UTC.
Position N 40°47' E 024°42'.

Length 100 m; draft 2.1 m.

Type: Passenger vessel. MMSI: 239371500.

Date/timePositionNaut miles runAvg speedWind from/ knotsBaromVisibWave heightAir tempDewpointWater temp
2017-Sep-19 19:21N 40°47' E 024°42'0 1.0
2017-Sep-19 19:00N 40°47' E 024°42'4 8.6
2017-Sep-19 18:30N 40°51' E 024°42'1 1.3
2017-Sep-19 18:00N 40°52' E 024°41'5 9.9
2017-Sep-19 17:30N 40°47' E 024°42'0 0.5
2017-Sep-19 17:00N 40°47' E 024°42'4 9.0
2017-Sep-19 16:30N 40°51' E 024°42'0 0.1
2017-Sep-19 16:00N 40°51' E 024°42'0 0.0
2017-Sep-19 15:30N 40°51' E 024°42'2 4.4
2017-Sep-19 15:00N 40°49' E 024°41'3 5.1
2017-Sep-19 14:30N 40°47' E 024°42'0 0.0
2017-Sep-19 14:00N 40°47' E 024°42'0 0.0
2017-Sep-19 13:30N 40°47' E 024°42'0 0.0
2017-Sep-19 13:00N 40°47' E 024°42'3 6.9
2017-Sep-19 12:30N 40°50' E 024°41'2 3.2
2017-Sep-19 12:00N 40°51' E 024°42'0 0.8
2017-Sep-19 11:30N 40°52' E 024°42'5 9.6
2017-Sep-19 11:00N 40°47' E 024°42'0 0.0
2017-Sep-19 10:30N 40°47' E 024°42'0 0.0
2017-Sep-19 10:00N 40°47' E 024°42'0 0.0
2017-Sep-18 13:53N 40°47' E 024°42'0 1.3
2017-Sep-18 13:30N 40°47' E 024°42'4 8.5
2017-Sep-18 13:00N 40°51' E 024°42'0 0.1
2017-Sep-18 12:30N 40°51' E 024°42'2 4.2
2017-Sep-18 12:00N 40°49' E 024°41'3 5.3
2017-Sep-18 11:30N 40°47' E 024°42'0 0.0
2017-Sep-18 11:00N 40°47' E 024°42'0 0.0
2017-Sep-18 10:30N 40°47' E 024°42'3 6.4
2017-Sep-18 10:00N 40°50' E 024°41'2 3.5
2017-Sep-18 09:30N 40°51' E 024°42'0 0.5
2017-Sep-18 09:00N 40°52' E 024°42'5 9.5
2017-Sep-18 08:30N 40°47' E 024°42'0 0.7
2017-Sep-18 08:00N 40°47' E 024°42'4 8.7
2017-Sep-18 07:30N 40°51' E 024°42'0 0.0
2017-Sep-18 07:00N 40°51' E 024°42'2 4.3
2017-Sep-18 06:30N 40°49' E 024°42'3 5.2
2017-Sep-18 06:00N 40°47' E 024°42'3 6.3
2017-Sep-18 05:30N 40°50' E 024°41'2 3.4
2017-Sep-18 05:00N 40°51' E 024°42'1 1.2
2017-Sep-18 04:30N 40°52' E 024°41'5 9.7
2017-Sep-18 04:00N 40°47' E 024°42'0 0.5
2017-Sep-18 03:30N 40°47' E 024°43'0 0.0
2017-Sep-18 03:00N 40°47' E 024°43'0 0.0
2017-Sep-17 06:25N 40°47' E 024°43'1 1.4
2017-Sep-17 06:00N 40°47' E 024°42'4 8.7
2017-Sep-17 05:30N 40°51' E 024°42'0 0.0
2017-Sep-17 05:00N 40°51' E 024°42'2 4.4
2017-Sep-17 04:30N 40°49' E 024°42'2 5.0
2017-Sep-17 04:00N 40°47' E 024°42'0 0.0
2017-Sep-17 03:30N 40°47' E 024°42'4 7.2
2017-Sep-17 03:00N 40°50' E 024°41'1 2.9
2017-Sep-17 02:30N 40°51' E 024°42'0 0.0
2017-Sep-17 02:00N 40°51' E 024°42'0 0.0
2017-Sep-16 20:56N 40°51' E 024°42'1 2.2
2017-Sep-16 20:30N 40°52' E 024°41'5 9.7
2017-Sep-16 20:00N 40°47' E 024°42'0 0.0
2017-Sep-16 19:30N 40°47' E 024°42'0 0.6
2017-Sep-16 19:00N 40°47' E 024°42'4 8.7
2017-Sep-16 18:30N 40°51' E 024°42'0 0.1
2017-Sep-16 18:00N 40°51' E 024°42'0 0.0
2017-Sep-16 17:30N 40°51' E 024°42'2 4.5
2017-Sep-16 17:00N 40°49' E 024°41'3 5.1
2017-Sep-16 16:30N 40°47' E 024°42'0 0.0
2017-Sep-16 16:00N 40°47' E 024°42'0 0.0
2017-Sep-16 15:30N 40°47' E 024°42'1 1.3
2017-Sep-16 15:00N 40°47' E 024°42'4 8.2
2017-Sep-16 14:30N 40°51' E 024°42'0 0.0
2017-Sep-16 14:00N 40°51' E 024°42'2 4.9
2017-Sep-16 13:30N 40°49' E 024°41'2 4.8
2017-Sep-16 13:00N 40°47' E 024°42'0 0.0
2017-Sep-16 12:30N 40°47' E 024°42'0 0.0
2017-Sep-15 16:33N 40°47' E 024°42'0 0.0
2017-Sep-15 16:31N 40°47' E 024°42'3 6.2
2017-Sep-15 16:01N 40°50' E 024°41'2 3.6
2017-Sep-15 15:31N 40°51' E 024°42'0 0.6
2017-Sep-15 15:01N 40°52' E 024°42'5 9.5
2017-Sep-15 14:31N 40°47' E 024°42'0 0.0
2017-Sep-15 14:01N 40°47' E 024°42'0 0.6
2017-Sep-15 13:31N 40°47' E 024°42'4 8.9
2017-Sep-15 13:01N 40°51' E 024°42'0 0.0
2017-Sep-15 12:31N 40°51' E 024°42'2 4.0
2017-Sep-15 12:01N 40°50' E 024°41'3 5.7
2017-Sep-15 11:31N 40°47' E 024°42'1 1.2
2017-Sep-15 11:00N 40°47' E 024°42'4 8.1
2017-Sep-15 10:31N 40°51' E 024°42'0 0.0
2017-Sep-15 10:01N 40°51' E 024°42'2 4.3
2017-Sep-15 09:31N 40°49' E 024°41'3 5.3
2017-Sep-15 09:01N 40°47' E 024°42'0 0.0
2017-Sep-15 08:31N 40°47' E 024°42'4 8.0
2017-Sep-15 08:01N 40°48' E 024°37'3 6.2
2017-Sep-15 07:31N 40°46' E 024°33'611.4
2017-Sep-15 07:01N 40°48' E 024°26'611.5
2017-Sep-15 06:31N 40°50' E 024°19'3 6.0
2017-Sep-15 06:00N 40°49' E 024°23'611.2
2017-Sep-15 05:31N 40°47' E 024°30'4 7.6
2017-Sep-15 05:00N 40°46' E 024°35'5 9.4
2017-Sep-15 04:30N 40°48' E 024°41'1 3.0
2017-Sep-15 04:01N 40°47' E 024°42'0 0.0
2017-Sep-14 13:20N 40°47' E 024°42'1 2.3
2017-Sep-14 13:00N 40°48' E 024°42'4 8.0
2017-Sep-14 12:31N 40°51' E 024°42'0 0.0
2017-Sep-14 12:00N 40°51' E 024°42'2 4.2
2017-Sep-14 11:30N 40°49' E 024°41'3 5.4
2017-Sep-14 11:00N 40°47' E 024°42'1 1.3
2017-Sep-14 10:31N 40°47' E 024°42'4 8.1
2017-Sep-14 10:00N 40°51' E 024°42'0 0.0
2017-Sep-14 09:31N 40°51' E 024°42'2 4.1
2017-Sep-14 09:00N 40°49' E 024°42'3 5.3
2017-Sep-14 08:30N 40°47' E 024°42'0 0.8
2017-Sep-14 08:01N 40°47' E 024°42'4 8.4
2017-Sep-14 07:30N 40°51' E 024°42'0 0.0
2017-Sep-14 07:01N 40°51' E 024°42'2 4.2
2017-Sep-14 06:31N 40°49' E 024°41'3 5.4
2017-Sep-14 06:00N 40°47' E 024°42'0 0.6
2017-Sep-14 05:30N 40°47' E 024°42'4 8.7
2017-Sep-14 05:00N 40°51' E 024°42'0 0.0
2017-Sep-14 04:30N 40°51' E 024°42'2 4.2
2017-Sep-14 04:00N 40°49' E 024°41'3 5.3
2017-Sep-14 03:31N 40°47' E 024°42'0 0.5
2017-Sep-14 03:00N 40°47' E 024°43'0 0.0
2017-Sep-13 10:28N 40°47' E 024°43'0 0.8
2017-Sep-13 10:00N 40°47' E 024°42'4 8.8
2017-Sep-13 09:30N 40°51' E 024°42'0 0.0
2017-Sep-13 09:00N 40°51' E 024°42'2 4.9
2017-Sep-13 08:30N 40°49' E 024°41'2 4.9
2017-Sep-13 08:00N 40°47' E 024°42'0 0.7
2017-Sep-13 07:30N 40°47' E 024°42'4 8.8
2017-Sep-13 07:00N 40°51' E 024°42'0 0.0
2017-Sep-13 06:30N 40°51' E 024°42'2 4.0
2017-Sep-13 06:00N 40°49' E 024°42'3 5.4
2017-Sep-13 05:30N 40°47' E 024°42'0 0.5
2017-Sep-13 05:00N 40°47' E 024°42'4 8.8
2017-Sep-13 04:30N 40°51' E 024°42'0 0.0
2017-Sep-13 04:00N 40°51' E 024°42'2 4.5
2017-Sep-13 03:30N 40°49' E 024°42'2 4.9
2017-Sep-13 03:00N 40°47' E 024°42'0 0.0
2017-Sep-13 02:30N 40°47' E 024°42'0 0.0
2017-Sep-12 09:47N 40°47' E 024°42'0 1.5
2017-Sep-12 09:30N 40°47' E 024°42'4 8.5
2017-Sep-12 09:00N 40°51' E 024°42'0 0.0
2017-Sep-12 08:30N 40°51' E 024°42'2 4.1
2017-Sep-12 08:00N 40°49' E 024°41'3 5.4
2017-Sep-12 07:30N 40°47' E 024°42'0 1.0
2017-Sep-12 07:00N 40°47' E 024°42'4 8.5
2017-Sep-12 06:30N 40°51' E 024°42'0 0.0
2017-Sep-12 06:00N 40°51' E 024°42'2 4.4
2017-Sep-12 05:30N 40°49' E 024°42'3 5.1
2017-Sep-12 05:00N 40°47' E 024°42'0 0.6
2017-Sep-12 04:30N 40°47' E 024°42'4 8.7
2017-Sep-12 04:00N 40°51' E 024°42'0 0.1
2017-Sep-12 03:30N 40°51' E 024°42'0 0.0
2017-Sep-11 18:19N 40°51' E 024°42'0 1.5
2017-Sep-11 18:01N 40°52' E 024°42'5 9.8
2017-Sep-11 17:31N 40°47' E 024°42'0 0.0
2017-Sep-11 17:01N 40°47' E 024°42'0 0.0
2017-Sep-11 16:31N 40°47' E 024°42'0 0.2
2017-Sep-11 16:01N 40°47' E 024°42'0 0.4
2017-Sep-11 15:31N 40°47' E 024°42'4 8.8
2017-Sep-11 15:00N 40°51' E 024°42'0 0.0
2017-Sep-11 14:30N 40°51' E 024°42'2 4.4
2017-Sep-11 14:01N 40°49' E 024°41'3 5.1
2017-Sep-11 13:30N 40°47' E 024°42'0 0.5
2017-Sep-11 13:00N 40°47' E 024°42'4 8.7
2017-Sep-11 12:30N 40°51' E 024°42'0 0.1
2017-Sep-11 12:01N 40°51' E 024°42'2 4.0
2017-Sep-11 11:30N 40°50' E 024°42'3 5.5
2017-Sep-11 11:00N 40°47' E 024°42'0 0.0
2017-Sep-11 10:31N 40°47' E 024°42'0 0.0
2017-Sep-10 17:12N 40°47' E 024°42'0 0.3
2017-Sep-10 17:00N 40°47' E 024°42'5 9.3
2017-Sep-10 16:30N 40°51' E 024°42'0 0.1
2017-Sep-10 16:00N 40°51' E 024°42'2 4.5
2017-Sep-10 15:30N 40°49' E 024°42'2 4.8
2017-Sep-10 15:00N 40°47' E 024°42'0 0.3
2017-Sep-10 14:00N 40°47' E 024°42'4 8.6
2017-Sep-10 13:30N 40°51' E 024°42'0 0.0
2017-Sep-10 13:00N 40°51' E 024°42'2 4.1
2017-Sep-10 12:30N 40°49' E 024°41'3 5.4
2017-Sep-10 12:00N 40°47' E 024°42'0 0.4
2017-Sep-10 11:30N 40°47' E 024°42'4 8.9
2017-Sep-10 11:00N 40°51' E 024°42'0 0.1
2017-Sep-10 10:30N 40°51' E 024°42'2 4.2
2017-Sep-10 10:00N 40°49' E 024°41'3 5.3
2017-Sep-10 09:30N 40°47' E 024°42'0 0.0
2017-Sep-10 09:00N 40°47' E 024°42'  
Track history (hours):
 
Tides and Currents Weather Stations Pressure Air Temp Water Temp Dewpoint Dewpoint Depression Visibility Wind Speed Wind Dir Waves Ship Positions

Thassos III

Last reported at 2017-Sep-19 19:21 UTC. Time now 2017-Sep-20 01:57 UTC.
Position N 40°47' E 024°42'.

Length 100 m; draft 2.1 m.

Type: Passenger vessel. MMSI: 239371500.

Date/timePositionNaut miles runAvg speedWind from/ knotsBaromVisibWave heightAir tempDewpointWater temp
2017-Sep-19 19:21N 40°47' E 024°42'0 1.0
2017-Sep-19 19:00N 40°47' E 024°42'4 8.6
2017-Sep-19 18:30N 40°51' E 024°42'1 1.3
2017-Sep-19 18:00N 40°52' E 024°41'5 9.9
2017-Sep-19 17:30N 40°47' E 024°42'0 0.5
2017-Sep-19 17:00N 40°47' E 024°42'4 9.0
2017-Sep-19 16:30N 40°51' E 024°42'0 0.1
2017-Sep-19 16:00N 40°51' E 024°42'0 0.0
2017-Sep-19 15:30N 40°51' E 024°42'2 4.4
2017-Sep-19 15:00N 40°49' E 024°41'3 5.1
2017-Sep-19 14:30N 40°47' E 024°42'0 0.0
2017-Sep-19 14:00N 40°47' E 024°42'0 0.0
2017-Sep-19 13:30N 40°47' E 024°42'0 0.0
2017-Sep-19 13:00N 40°47' E 024°42'3 6.9
2017-Sep-19 12:30N 40°50' E 024°41'2 3.2
2017-Sep-19 12:00N 40°51' E 024°42'0 0.8
2017-Sep-19 11:30N 40°52' E 024°42'5 9.6
2017-Sep-19 11:00N 40°47' E 024°42'0 0.0
2017-Sep-19 10:30N 40°47' E 024°42'0 0.0
2017-Sep-19 10:00N 40°47' E 024°42'0 0.0
2017-Sep-18 13:53N 40°47' E 024°42'0 1.3
2017-Sep-18 13:30N 40°47' E 024°42'4 8.5
2017-Sep-18 13:00N 40°51' E 024°42'0 0.1
2017-Sep-18 12:30N 40°51' E 024°42'2 4.2
2017-Sep-18 12:00N 40°49' E 024°41'3 5.3
2017-Sep-18 11:30N 40°47' E 024°42'0 0.0
2017-Sep-18 11:00N 40°47' E 024°42'0 0.0
2017-Sep-18 10:30N 40°47' E 024°42'3 6.4
2017-Sep-18 10:00N 40°50' E 024°41'2 3.5
2017-Sep-18 09:30N 40°51' E 024°42'0 0.5
2017-Sep-18 09:00N 40°52' E 024°42'5 9.5
2017-Sep-18 08:30N 40°47' E 024°42'0 0.7
2017-Sep-18 08:00N 40°47' E 024°42'4 8.7
2017-Sep-18 07:30N 40°51' E 024°42'0 0.0
2017-Sep-18 07:00N 40°51' E 024°42'2 4.3
2017-Sep-18 06:30N 40°49' E 024°42'3 5.2
2017-Sep-18 06:00N 40°47' E 024°42'3 6.3
2017-Sep-18 05:30N 40°50' E 024°41'2 3.4
2017-Sep-18 05:00N 40°51' E 024°42'1 1.2
2017-Sep-18 04:30N 40°52' E 024°41'5 9.7
2017-Sep-18 04:00N 40°47' E 024°42'0 0.5
2017-Sep-18 03:30N 40°47' E 024°43'0 0.0
2017-Sep-18 03:00N 40°47' E 024°43'0 0.0
2017-Sep-17 06:25N 40°47' E 024°43'1 1.4
2017-Sep-17 06:00N 40°47' E 024°42'4 8.7
2017-Sep-17 05:30N 40°51' E 024°42'0 0.0
2017-Sep-17 05:00N 40°51' E 024°42'2 4.4
2017-Sep-17 04:30N 40°49' E 024°42'2 5.0
2017-Sep-17 04:00N 40°47' E 024°42'0 0.0
2017-Sep-17 03:30N 40°47' E 024°42'4 7.2
2017-Sep-17 03:00N 40°50' E 024°41'1 2.9
2017-Sep-17 02:30N 40°51' E 024°42'0 0.0
2017-Sep-17 02:00N 40°51' E 024°42'0 0.0
2017-Sep-16 20:56N 40°51' E 024°42'1 2.2
2017-Sep-16 20:30N 40°52' E 024°41'5 9.7
2017-Sep-16 20:00N 40°47' E 024°42'0 0.0
2017-Sep-16 19:30N 40°47' E 024°42'0 0.6
2017-Sep-16 19:00N 40°47' E 024°42'4 8.7
2017-Sep-16 18:30N 40°51' E 024°42'0 0.1
2017-Sep-16 18:00N 40°51' E 024°42'0 0.0
2017-Sep-16 17:30N 40°51' E 024°42'2 4.5
2017-Sep-16 17:00N 40°49' E 024°41'3 5.1
2017-Sep-16 16:30N 40°47' E 024°42'0 0.0
2017-Sep-16 16:00N 40°47' E 024°42'0 0.0
2017-Sep-16 15:30N 40°47' E 024°42'1 1.3
2017-Sep-16 15:00N 40°47' E 024°42'4 8.2
2017-Sep-16 14:30N 40°51' E 024°42'0 0.0
2017-Sep-16 14:00N 40°51' E 024°42'2 4.9
2017-Sep-16 13:30N 40°49' E 024°41'2 4.8
2017-Sep-16 13:00N 40°47' E 024°42'0 0.0
2017-Sep-16 12:30N 40°47' E 024°42'0 0.0
2017-Sep-15 16:33N 40°47' E 024°42'0 0.0
2017-Sep-15 16:31N 40°47' E 024°42'3 6.2
2017-Sep-15 16:01N 40°50' E 024°41'2 3.6
2017-Sep-15 15:31N 40°51' E 024°42'0 0.6
2017-Sep-15 15:01N 40°52' E 024°42'5 9.5
2017-Sep-15 14:31N 40°47' E 024°42'0 0.0
2017-Sep-15 14:01N 40°47' E 024°42'0 0.6
2017-Sep-15 13:31N 40°47' E 024°42'4 8.9
2017-Sep-15 13:01N 40°51' E 024°42'0 0.0
2017-Sep-15 12:31N 40°51' E 024°42'2 4.0
2017-Sep-15 12:01N 40°50' E 024°41'3 5.7
2017-Sep-15 11:31N 40°47' E 024°42'1 1.2
2017-Sep-15 11:00N 40°47' E 024°42'4 8.1
2017-Sep-15 10:31N 40°51' E 024°42'0 0.0
2017-Sep-15 10:01N 40°51' E 024°42'2 4.3
2017-Sep-15 09:31N 40°49' E 024°41'3 5.3
2017-Sep-15 09:01N 40°47' E 024°42'0 0.0
2017-Sep-15 08:31N 40°47' E 024°42'4 8.0
2017-Sep-15 08:01N 40°48' E 024°37'3 6.2
2017-Sep-15 07:31N 40°46' E 024°33'611.4
2017-Sep-15 07:01N 40°48' E 024°26'611.5
2017-Sep-15 06:31N 40°50' E 024°19'3 6.0
2017-Sep-15 06:00N 40°49' E 024°23'611.2
2017-Sep-15 05:31N 40°47' E 024°30'4 7.6
2017-Sep-15 05:00N 40°46' E 024°35'5 9.4
2017-Sep-15 04:30N 40°48' E 024°41'1 3.0
2017-Sep-15 04:01N 40°47' E 024°42'0 0.0
2017-Sep-14 13:20N 40°47' E 024°42'1 2.3
2017-Sep-14 13:00N 40°48' E 024°42'4 8.0
2017-Sep-14 12:31N 40°51' E 024°42'0 0.0
2017-Sep-14 12:00N 40°51' E 024°42'2 4.2
2017-Sep-14 11:30N 40°49' E 024°41'3 5.4
2017-Sep-14 11:00N 40°47' E 024°42'1 1.3
2017-Sep-14 10:31N 40°47' E 024°42'4 8.1
2017-Sep-14 10:00N 40°51' E 024°42'0 0.0
2017-Sep-14 09:31N 40°51' E 024°42'2 4.1
2017-Sep-14 09:00N 40°49' E 024°42'3 5.3
2017-Sep-14 08:30N 40°47' E 024°42'0 0.8
2017-Sep-14 08:01N 40°47' E 024°42'4 8.4
2017-Sep-14 07:30N 40°51' E 024°42'0 0.0
2017-Sep-14 07:01N 40°51' E 024°42'2 4.2
2017-Sep-14 06:31N 40°49' E 024°41'3 5.4
2017-Sep-14 06:00N 40°47' E 024°42'0 0.6
2017-Sep-14 05:30N 40°47' E 024°42'4 8.7
2017-Sep-14 05:00N 40°51' E 024°42'0 0.0
2017-Sep-14 04:30N 40°51' E 024°42'2 4.2
2017-Sep-14 04:00N 40°49' E 024°41'3 5.3
2017-Sep-14 03:31N 40°47' E 024°42'0 0.5
2017-Sep-14 03:00N 40°47' E 024°43'0 0.0
2017-Sep-13 10:28N 40°47' E 024°43'0 0.8
2017-Sep-13 10:00N 40°47' E 024°42'4 8.8
2017-Sep-13 09:30N 40°51' E 024°42'0 0.0
2017-Sep-13 09:00N 40°51' E 024°42'2 4.9
2017-Sep-13 08:30N 40°49' E 024°41'2 4.9
2017-Sep-13 08:00N 40°47' E 024°42'0 0.7
2017-Sep-13 07:30N 40°47' E 024°42'4 8.8
2017-Sep-13 07:00N 40°51' E 024°42'0 0.0
2017-Sep-13 06:30N 40°51' E 024°42'2 4.0
2017-Sep-13 06:00N 40°49' E 024°42'3 5.4
2017-Sep-13 05:30N 40°47' E 024°42'0 0.5
2017-Sep-13 05:00N 40°47' E 024°42'4 8.8
2017-Sep-13 04:30N 40°51' E 024°42'0 0.0
2017-Sep-13 04:00N 40°51' E 024°42'2 4.5
2017-Sep-13 03:30N 40°49' E 024°42'2 4.9
2017-Sep-13 03:00N 40°47' E 024°42'0 0.0
2017-Sep-13 02:30N 40°47' E 024°42'0 0.0
2017-Sep-12 09:47N 40°47' E 024°42'0 1.5
2017-Sep-12 09:30N 40°47' E 024°42'4 8.5
2017-Sep-12 09:00N 40°51' E 024°42'0 0.0
2017-Sep-12 08:30N 40°51' E 024°42'2 4.1
2017-Sep-12 08:00N 40°49' E 024°41'3 5.4
2017-Sep-12 07:30N 40°47' E 024°42'0 1.0
2017-Sep-12 07:00N 40°47' E 024°42'4 8.5
2017-Sep-12 06:30N 40°51' E 024°42'0 0.0
2017-Sep-12 06:00N 40°51' E 024°42'2 4.4
2017-Sep-12 05:30N 40°49' E 024°42'3 5.1
2017-Sep-12 05:00N 40°47' E 024°42'0 0.6
2017-Sep-12 04:30N 40°47' E 024°42'4 8.7
2017-Sep-12 04:00N 40°51' E 024°42'0 0.1
2017-Sep-12 03:30N 40°51' E 024°42'0 0.0
2017-Sep-11 18:19N 40°51' E 024°42'0 1.5
2017-Sep-11 18:01N 40°52' E 024°42'5 9.8
2017-Sep-11 17:31N 40°47' E 024°42'0 0.0
2017-Sep-11 17:01N 40°47' E 024°42'0 0.0
2017-Sep-11 16:31N 40°47' E 024°42'0 0.2
2017-Sep-11 16:01N 40°47' E 024°42'0 0.4
2017-Sep-11 15:31N 40°47' E 024°42'4 8.8
2017-Sep-11 15:00N 40°51' E 024°42'0 0.0
2017-Sep-11 14:30N 40°51' E 024°42'2 4.4
2017-Sep-11 14:01N 40°49' E 024°41'3 5.1
2017-Sep-11 13:30N 40°47' E 024°42'0 0.5
2017-Sep-11 13:00N 40°47' E 024°42'4 8.7
2017-Sep-11 12:30N 40°51' E 024°42'0 0.1
2017-Sep-11 12:01N 40°51' E 024°42'2 4.0
2017-Sep-11 11:30N 40°50' E 024°42'3 5.5
2017-Sep-11 11:00N 40°47' E 024°42'0 0.0
2017-Sep-11 10:31N 40°47' E 024°42'0 0.0
2017-Sep-10 17:12N 40°47' E 024°42'0 0.3
2017-Sep-10 17:00N 40°47' E 024°42'5 9.3
2017-Sep-10 16:30N 40°51' E 024°42'0 0.1
2017-Sep-10 16:00N 40°51' E 024°42'2 4.5
2017-Sep-10 15:30N 40°49' E 024°42'2 4.8
2017-Sep-10 15:00N 40°47' E 024°42'0 0.3
2017-Sep-10 14:00N 40°47' E 024°42'4 8.6
2017-Sep-10 13:30N 40°51' E 024°42'0 0.0
2017-Sep-10 13:00N 40°51' E 024°42'2 4.1
2017-Sep-10 12:30N 40°49' E 024°41'3 5.4
2017-Sep-10 12:00N 40°47' E 024°42'0 0.4
2017-Sep-10 11:30N 40°47' E 024°42'4 8.9
2017-Sep-10 11:00N 40°51' E 024°42'0 0.1
2017-Sep-10 10:30N 40°51' E 024°42'2 4.2
2017-Sep-10 10:00N 40°49' E 024°41'3 5.3
2017-Sep-10 09:30N 40°47' E 024°42'0 0.0
2017-Sep-10 09:00N 40°47' E 024°42'  

Dump ship's entire track history